Time;durP1;ratioP1;P1;durP2;ratioP2;P2;SDS_P1;SDS_P2;PMS_P1;PMS_P2;Temp;Humidity;BMP_temperature;BMP_pressure;BME280_temperature;BME280_humidity;BME280_pressure;Samples;Min_cycle;Max_cycle;Signal;HPM_P1;HPM_P2
2021/11/01 00:00:45;;;;;;;105.15;71.22;;;;;;;;;;5094093;28;20473;-82
2021/11/01 00:03:12;;;;;;;108.22;70.63;;;;;;;;;;5091839;28;20425;-82
2021/11/01 00:05:39;;;;;;;106.15;71.22;;;;;;;;;;5092650;28;20457;-82
2021/11/01 00:08:06;;;;;;;106.28;69.72;;;;;;;;;;5094429;28;20882;-81
2021/11/01 00:10:35;;;;;;;109.38;70.85;;;;;;;;;;5093609;28;20744;-82
2021/11/01 00:13:03;;;;;;;109.40;72.90;;;;;;;;;;5089739;28;20404;-82
2021/11/01 00:15:31;;;;;;;109.50;72.75;;;;;;;;;;5095287;28;20515;-83
2021/11/01 00:17:58;;;;;;;109.67;71.03;;;;;;;;;;5092424;28;20402;-82
2021/11/01 00:20:25;;;;;;;105.78;72.82;;;;;;;;;;5093116;28;20404;-82
2021/11/01 00:22:52;;;;;;;113.13;73.47;;;;;;;;;;5096292;28;20415;-83
2021/11/01 00:25:20;;;;;;;113.63;73.75;;;;;;;;;;5097570;28;20402;-81
2021/11/01 00:27:49;;;;;;;107.93;71.03;;;;;;;;;;5099364;28;20876;-81
2021/11/01 00:30:17;;;;;;;112.00;74.87;;;;;;;;;;5094964;28;20915;-82
2021/11/01 00:32:46;;;;;;;117.93;75.68;;;;;;;;;;5097040;28;20401;-82
2021/11/01 00:35:13;;;;;;;116.07;77.32;;;;;;;;;;5094906;28;20403;-83
2021/11/01 00:37:40;;;;;;;114.80;74.50;;;;;;;;;;5099264;28;20396;-82
2021/11/01 00:40:08;;;;;;;119.00;76.57;;;;;;;;;;5095238;28;20400;-82
2021/11/01 00:42:35;;;;;;;115.53;74.20;;;;;;;;;;5096337;28;20412;-83
2021/11/01 00:45:04;;;;;;;108.18;72.57;;;;;;;;;;5095470;28;20402;-82
2021/11/01 00:47:31;;;;;;;113.95;74.63;;;;;;;;;;5094287;28;20878;-82
2021/11/01 00:49:58;;;;;;;109.88;73.35;;;;;;;;;;5097607;28;20403;-83
2021/11/01 00:52:26;;;;;;;107.55;73.35;;;;;;;;;;5095780;28;20396;-83
2021/11/01 00:54:58;;;;;;;116.65;76.93;;;;;;;;;;5095487;28;20397;-83
2021/11/01 00:57:27;;;;;;;120.57;77.45;;;;;;;;;;5096222;28;20424;-83
2021/11/01 00:59:54;;;;;;;114.50;76.78;;;;;;;;;;5097078;28;20397;-83
2021/11/01 01:02:22;;;;;;;119.23;76.63;;;;;;;;;;5095808;28;20404;-83
2021/11/01 01:04:49;;;;;;;116.72;76.95;;;;;;;;;;5096499;28;20393;-83
2021/11/01 01:07:16;;;;;;;116.43;77.22;;;;;;;;;;5095236;28;20446;-84
2021/11/01 01:09:43;;;;;;;114.85;75.15;;;;;;;;;;5095482;28;20392;-84
2021/11/01 01:12:11;;;;;;;113.38;75.05;;;;;;;;;;5093794;28;20483;-83
2021/11/01 01:14:43;;;;;;;113.88;73.47;;;;;;;;;;5095174;28;20483;-84
2021/11/01 01:17:10;;;;;;;109.63;73.47;;;;;;;;;;5096768;28;20400;-83
2021/11/01 01:19:50;;;;;;;112.90;75.13;;;;;;;;;;5100233;28;20860;-83
2021/11/01 01:22:28;;;;;;;115.40;74.80;;;;;;;;;;5096568;28;20408;-83
2021/11/01 01:24:56;;;;;;;114.97;73.60;;;;;;;;;;5096331;28;20436;-83
2021/11/01 01:27:23;;;;;;;112.87;72.93;;;;;;;;;;5094673;28;20401;-83
2021/11/01 01:29:50;;;;;;;110.70;73.70;;;;;;;;;;5097455;28;20405;-83
2021/11/01 01:32:17;;;;;;;112.80;74.72;;;;;;;;;;5093770;28;20745;-82
2021/11/01 01:34:45;;;;;;;112.23;72.73;;;;;;;;;;5092329;28;20392;-83
2021/11/01 01:37:13;;;;;;;111.53;74.45;;;;;;;;;;5095679;28;20639;-83
2021/11/01 01:39:39;;;;;;;113.72;72.60;;;;;;;;;;5094041;28;20487;-83
2021/11/01 01:42:06;;;;;;;110.57;72.28;;;;;;;;;;5094718;28;20395;-82
2021/11/01 01:44:33;;;;;;;108.43;72.20;;;;;;;;;;5089715;28;20483;-83
2021/11/01 01:47:00;;;;;;;111.93;72.65;;;;;;;;;;5095751;28;20439;-83
2021/11/01 01:49:29;;;;;;;112.38;74.28;;;;;;;;;;5090384;28;20414;-83
2021/11/01 01:51:57;;;;;;;109.53;73.30;;;;;;;;;;5094414;28;20907;-84
2021/11/01 01:54:24;;;;;;;109.85;72.32;;;;;;;;;;5090658;28;20893;-83
2021/11/01 01:56:51;;;;;;;113.10;73.80;;;;;;;;;;5095644;28;20392;-84
2021/11/01 01:59:18;;;;;;;107.95;72.38;;;;;;;;;;5094915;27;20411;-83
2021/11/01 02:01:46;;;;;;;107.55;71.88;;;;;;;;;;5093277;28;20396;-83
2021/11/01 02:04:15;;;;;;;105.80;70.13;;;;;;;;;;5094281;28;21069;-84
2021/11/01 02:06:53;;;;;;;110.03;72.75;;;;;;;;;;5091069;28;20428;-83
2021/11/01 02:09:26;;;;;;;102.20;69.57;;;;;;;;;;5093562;28;20405;-83
2021/11/01 02:11:59;;;;;;;107.78;70.97;;;;;;;;;;5097975;28;20403;-83
2021/11/01 02:14:32;;;;;;;103.10;69.78;;;;;;;;;;5094015;28;20482;-83
2021/11/01 02:17:00;;;;;;;107.37;71.37;;;;;;;;;;5095002;28;20391;-83
2021/11/01 02:19:30;;;;;;;104.85;68.80;;;;;;;;;;5093514;28;20401;-83
2021/11/01 02:22:04;;;;;;;104.93;68.78;;;;;;;;;;5087740;28;20416;-83
2021/11/01 02:24:43;;;;;;;102.45;68.93;;;;;;;;;;5091481;28;20418;-84
2021/11/01 02:27:12;;;;;;;99.75;67.40;;;;;;;;;;5092113;28;20870;-84
2021/11/01 02:29:43;;;;;;;101.33;67.93;;;;;;;;;;5092333;28;20454;-83
2021/11/01 02:32:12;;;;;;;101.40;68.43;;;;;;;;;;5093667;28;20405;-83
2021/11/01 02:34:40;;;;;;;103.15;68.28;;;;;;;;;;5092891;28;20407;-83
2021/11/01 02:37:08;;;;;;;100.32;66.25;;;;;;;;;;5093968;28;20402;-83
2021/11/01 02:39:46;;;;;;;99.43;66.18;;;;;;;;;;5092469;28;20937;-84
2021/11/01 02:42:16;;;;;;;97.60;66.03;;;;;;;;;;5092861;28;20414;-82
2021/11/01 02:44:54;;;;;;;96.63;64.75;;;;;;;;;;5092180;28;20473;-83
2021/11/01 02:47:21;;;;;;;97.68;62.97;;;;;;;;;;5093505;28;20419;-83
2021/11/01 02:49:47;;;;;;;92.33;62.17;;;;;;;;;;5093453;28;20411;-83
2021/11/01 02:52:14;;;;;;;88.20;58.40;;;;;;;;;;5093803;28;20402;-83
2021/11/01 02:54:41;;;;;;;81.88;54.88;;;;;;;;;;5092412;28;20412;-84
2021/11/01 02:57:08;;;;;;;89.68;56.30;;;;;;;;;;5089403;28;20398;-83
2021/11/01 02:59:36;;;;;;;80.35;52.90;;;;;;;;;;5092148;28;20478;-83
2021/11/01 03:02:04;;;;;;;76.32;52.08;;;;;;;;;;5097270;28;20384;-83
2021/11/01 03:04:30;;;;;;;81.53;54.25;;;;;;;;;;5113760;28;20469;-82
2021/11/01 03:07:00;;;;;;;81.45;54.20;;;;;;;;;;5093586;28;20388;-83
2021/11/01 03:09:29;;;;;;;78.07;52.78;;;;;;;;;;5090891;28;20408;-83
2021/11/01 03:11:58;;;;;;;81.40;52.85;;;;;;;;;;5087807;28;20701;-83
2021/11/01 03:14:40;;;;;;;76.07;52.35;;;;;;;;;;5088380;28;20662;-83
2021/11/01 03:17:12;;;;;;;79.32;53.05;;;;;;;;;;5088302;28;20400;-83
2021/11/01 03:19:40;;;;;;;82.53;53.20;;;;;;;;;;5088111;28;20396;-83
2021/11/01 03:22:08;;;;;;;74.65;50.75;;;;;;;;;;5085434;28;20403;-84
2021/11/01 03:24:39;;;;;;;77.88;51.83;;;;;;;;;;5090856;28;20427;-83
2021/11/01 03:27:08;;;;;;;73.25;50.53;;;;;;;;;;5085607;28;20428;-84
2021/11/01 03:29:36;;;;;;;73.88;48.95;;;;;;;;;;5088291;28;20404;-83
2021/11/01 03:32:06;;;;;;;72.75;48.55;;;;;;;;;;5088103;28;20407;-83
2021/11/01 03:34:35;;;;;;;69.53;47.35;;;;;;;;;;5088093;28;20842;-84
2021/11/01 03:37:09;;;;;;;68.90;47.10;;;;;;;;;;5090731;28;20425;-83
2021/11/01 03:39:37;;;;;;;65.97;46.13;;;;;;;;;;5085463;28;20423;-84
2021/11/01 03:42:06;;;;;;;70.57;48.22;;;;;;;;;;5090987;28;20394;-84
2021/11/01 03:44:35;;;;;;;67.50;47.03;;;;;;;;;;5090374;28;20468;-83
2021/11/01 03:47:04;;;;;;;70.53;48.20;;;;;;;;;;5088887;28;20487;-84
2021/11/01 03:49:35;;;;;;;72.65;48.30;;;;;;;;;;5095191;28;20477;-83
2021/11/01 03:52:10;;;;;;;70.80;47.37;;;;;;;;;;5091257;28;20429;-84
2021/11/01 03:54:39;;;;;;;71.38;48.90;;;;;;;;;;5091165;28;20405;-84
2021/11/01 03:57:07;;;;;;;72.32;48.67;;;;;;;;;;5088580;28;20810;-83
2021/11/01 03:59:35;;;;;;;72.05;46.90;;;;;;;;;;5089016;28;20491;-83
2021/11/01 04:02:03;;;;;;;71.68;48.53;;;;;;;;;;5091766;28;20425;-83
2021/11/01 04:04:29;;;;;;;70.05;47.72;;;;;;;;;;5094773;28;20414;-83
2021/11/01 04:06:57;;;;;;;75.45;51.22;;;;;;;;;;5089067;28;20474;-83
2021/11/01 04:09:26;;;;;;;75.13;51.95;;;;;;;;;;5089222;28;20408;-84
2021/11/01 04:11:53;;;;;;;81.05;53.58;;;;;;;;;;5088765;28;20396;-83
2021/11/01 04:14:23;;;;;;;84.45;55.60;;;;;;;;;;5089054;28;20461;-83
2021/11/01 04:16:53;;;;;;;87.10;58.08;;;;;;;;;;5096345;28;20746;-83
2021/11/01 04:19:43;;;;;;;91.35;59.85;;;;;;;;;;5097162;28;20396;-83
2021/11/01 04:22:10;;;;;;;94.68;61.05;;;;;;;;;;5088897;28;20400;-84
2021/11/01 04:24:38;;;;;;;92.72;60.40;;;;;;;;;;5090957;28;20447;-84
2021/11/01 04:27:05;;;;;;;94.65;61.33;;;;;;;;;;5093373;28;20797;-83
2021/11/01 04:29:33;;;;;;;97.55;61.40;;;;;;;;;;5093811;28;20895;-84
2021/11/01 04:32:14;;;;;;;96.22;61.05;;;;;;;;;;5088133;28;20414;-83
2021/11/01 04:34:44;;;;;;;96.47;62.30;;;;;;;;;;5090922;28;20484;-83
2021/11/01 04:37:11;;;;;;;97.00;61.95;;;;;;;;;;5090940;28;20400;-83
2021/11/01 04:39:54;;;;;;;100.03;63.20;;;;;;;;;;5089581;28;20404;-84
2021/11/01 04:53:43;;;;;;;99.63;63.03;;;;;;;;;;5087041;28;20387;-83
2021/11/01 04:56:13;;;;;;;100.03;63.67;;;;;;;;;;5086477;28;20431;-83
2021/11/01 04:58:42;;;;;;;101.72;63.28;;;;;;;;;;5086049;28;20469;-83
2021/11/01 05:01:09;;;;;;;102.60;64.82;;;;;;;;;;5086787;28;20479;-83
2021/11/01 05:03:38;;;;;;;99.10;64.60;;;;;;;;;;5088460;28;20418;-83
2021/11/01 05:06:06;;;;;;;104.38;64.95;;;;;;;;;;5092839;28;20872;-83
2021/11/01 05:08:41;;;;;;;103.13;65.43;;;;;;;;;;5098757;28;20399;-83
2021/11/01 05:11:16;;;;;;;105.90;65.13;;;;;;;;;;5095344;28;20740;-83
2021/11/01 05:13:45;;;;;;;107.23;65.33;;;;;;;;;;5096043;28;20408;-83
2021/11/01 05:16:16;;;;;;;109.63;66.53;;;;;;;;;;5096894;28;20436;-83
2021/11/01 05:18:48;;;;;;;106.97;66.80;;;;;;;;;;5094164;28;20403;-83
2021/11/01 05:21:24;;;;;;;109.60;67.30;;;;;;;;;;5094621;28;20883;-83
2021/11/01 05:23:56;;;;;;;111.15;67.78;;;;;;;;;;5091843;28;20777;-83
2021/11/01 05:26:33;;;;;;;104.50;65.93;;;;;;;;;;5094549;28;20459;-83
2021/11/01 05:29:05;;;;;;;107.83;67.87;;;;;;;;;;5095419;28;21148;-83
2021/11/01 05:31:42;;;;;;;107.00;66.55;;;;;;;;;;5098911;28;20402;-83
2021/11/01 05:34:11;;;;;;;109.32;68.72;;;;;;;;;;5095599;28;20400;-83
2021/11/01 05:36:38;;;;;;;108.82;69.15;;;;;;;;;;5095768;28;20408;-83
2021/11/01 05:39:05;;;;;;;112.05;68.60;;;;;;;;;;5098355;28;20401;-84
2021/11/01 05:41:32;;;;;;;109.53;69.93;;;;;;;;;;5094632;28;20400;-82
2021/11/01 05:43:59;;;;;;;107.30;67.70;;;;;;;;;;5096576;28;20404;-83
2021/11/01 05:46:33;;;;;;;107.05;66.28;;;;;;;;;;5103027;28;20728;-82
2021/11/01 05:49:01;;;;;;;106.97;69.03;;;;;;;;;;5115376;28;20412;-84
2021/11/01 05:51:28;;;;;;;109.13;67.90;;;;;;;;;;5095070;28;20406;-83
2021/11/01 05:53:57;;;;;;;108.22;66.75;;;;;;;;;;5096731;28;20396;-83
2021/11/01 05:56:34;;;;;;;108.00;67.35;;;;;;;;;;5097147;28;20422;-83
2021/11/01 05:59:33;;;;;;;109.78;67.38;;;;;;;;;;5098229;28;20438;-85
2021/11/01 06:04:54;;;;;;;109.10;68.38;;;;;;;;;;5086101;28;20506;-84
2021/11/01 06:07:27;;;;;;;111.30;67.80;;;;;;;;;;5095990;28;20942;-83
2021/11/01 06:10:02;;;;;;;109.70;68.85;;;;;;;;;;5097335;28;20731;-84
2021/11/01 06:15:14;;;;;;;115.00;69.82;;;;;;;;;;5095039;28;20744;-83
2021/11/01 06:17:43;;;;;;;106.53;66.97;;;;;;;;;;5098543;28;20398;-83
2021/11/01 06:20:12;;;;;;;104.15;67.40;;;;;;;;;;5098542;28;20405;-83
2021/11/01 06:22:38;;;;;;;109.72;67.38;;;;;;;;;;5095712;28;20396;-83
2021/11/01 06:25:07;;;;;;;111.65;69.10;;;;;;;;;;5099057;28;20412;-83
2021/11/01 06:27:36;;;;;;;111.20;67.37;;;;;;;;;;5098023;28;20421;-83
2021/11/01 06:30:13;;;;;;;112.20;67.33;;;;;;;;;;5095326;28;20401;-83
2021/11/01 06:32:43;;;;;;;107.30;67.45;;;;;;;;;;5094929;28;20806;-84
2021/11/01 06:40:59;;;;;;;108.47;65.40;;;;;;;;;;5092577;28;20415;-83
2021/11/01 06:43:28;;;;;;;109.88;66.80;;;;;;;;;;5096211;28;20423;-83
2021/11/01 06:54:32;;;;;;;108.47;65.50;;;;;;;;;;5086925;28;20421;-82
2021/11/01 06:57:17;;;;;;;110.77;65.93;;;;;;;;;;5096600;28;20491;-82
2021/11/01 07:16:33;;;;;;;106.67;66.37;;;;;;;;;;5101980;28;20442;-83
2021/11/01 07:19:03;;;;;;;101.15;63.42;;;;;;;;;;5097701;28;20427;-81
2021/11/01 08:42:15;;;;;;;80.28;52.15;;;;;;;;;;5092950;28;20442;-82
2021/11/01 09:01:44;;;;;;;68.82;46.15;;;;;;;;;;5099843;27;20397;-81
2021/11/01 09:04:21;;;;;;;67.82;46.13;;;;;;;;;;5109410;28;20405;-80
2021/11/01 09:07:14;;;;;;;70.85;47.20;;;;;;;;;;5102252;28;20491;-81
2021/11/01 09:09:59;;;;;;;75.85;48.72;;;;;;;;;;5096253;28;20397;-81
2021/11/01 09:20:47;;;;;;;75.28;47.95;;;;;;;;;;5098897;28;20397;-81
2021/11/01 09:26:04;;;;;;;77.10;48.10;;;;;;;;;;5096960;28;20496;-81
2021/11/01 09:28:35;;;;;;;78.32;49.38;;;;;;;;;;5105285;27;20407;-81
2021/11/01 09:36:38;;;;;;;81.38;49.25;;;;;;;;;;5097166;28;20410;-82
2021/11/01 09:41:49;;;;;;;85.13;51.45;;;;;;;;;;5079952;28;20388;-82
2021/11/01 09:44:23;;;;;;;87.30;52.53;;;;;;;;;;5097904;28;20409;-82
2021/11/01 09:46:50;;;;;;;87.30;52.37;;;;;;;;;;5110225;27;20485;-80
2021/11/01 09:49:17;;;;;;;84.25;51.88;;;;;;;;;;5098385;28;20403;-82
2021/11/01 09:51:48;;;;;;;91.28;53.65;;;;;;;;;;5095414;28;20400;-82
2021/11/01 09:54:23;;;;;;;89.03;52.30;;;;;;;;;;5098432;28;20405;-82
2021/11/01 09:57:03;;;;;;;92.45;54.80;;;;;;;;;;5095412;28;20827;-82
2021/11/01 09:59:35;;;;;;;96.43;56.65;;;;;;;;;;5096262;28;20470;-82
2021/11/01 10:02:03;;;;;;;94.25;55.28;;;;;;;;;;5101159;27;20395;-82
2021/11/01 10:04:32;;;;;;;97.78;56.80;;;;;;;;;;5096128;28;20863;-83
2021/11/01 10:07:19;;;;;;;97.43;57.40;;;;;;;;;;5098217;28;20402;-82
2021/11/01 10:09:47;;;;;;;101.60;58.22;;;;;;;;;;5095093;28;20397;-82
2021/11/01 10:12:21;;;;;;;97.15;57.53;;;;;;;;;;5094836;28;20491;-82
2021/11/01 10:14:52;;;;;;;94.93;56.17;;;;;;;;;;5101899;27;20910;-82
2021/11/01 10:17:35;;;;;;;96.93;54.80;;;;;;;;;;5108132;27;20395;-82
2021/11/01 10:20:08;;;;;;;95.03;55.20;;;;;;;;;;5096148;28;20760;-82
2021/11/01 10:22:38;;;;;;;96.40;54.25;;;;;;;;;;5095542;28;20387;-82
2021/11/01 10:25:08;;;;;;;96.82;55.08;;;;;;;;;;5094340;28;20406;-82
2021/11/01 10:27:37;;;;;;;99.10;55.85;;;;;;;;;;5096624;28;20399;-82
2021/11/01 10:30:08;;;;;;;95.20;56.40;;;;;;;;;;5095542;28;20398;-82
2021/11/01 10:32:39;;;;;;;103.78;56.67;;;;;;;;;;5097904;28;20403;-82
2021/11/01 10:35:15;;;;;;;99.43;56.83;;;;;;;;;;5096404;28;20397;-82
2021/11/01 10:38:04;;;;;;;97.70;56.00;;;;;;;;;;5097870;28;20394;-82
2021/11/01 10:40:34;;;;;;;98.78;56.10;;;;;;;;;;5090195;28;20764;-83
2021/11/01 10:43:17;;;;;;;98.30;54.90;;;;;;;;;;5096223;28;20426;-78
2021/11/01 10:46:22;;;;;;;100.63;55.17;;;;;;;;;;5099393;28;20419;-82
2021/11/01 11:11:17;;;;;;;101.27;58.07;;;;;;;;;;5090011;28;20407;-81
2021/11/01 11:13:48;;;;;;;95.43;55.00;;;;;;;;;;5092442;28;20471;-81
2021/11/01 11:16:35;;;;;;;97.07;54.45;;;;;;;;;;5097973;28;21348;-82
2021/11/01 11:19:12;;;;;;;102.80;57.72;;;;;;;;;;5088927;28;20910;-82
2021/11/01 11:22:02;;;;;;;104.05;58.25;;;;;;;;;;5087563;28;20426;-80
2021/11/01 11:30:31;;;;;;;105.93;58.03;;;;;;;;;;5085869;28;20395;-81
2021/11/01 11:47:25;;;;;;;108.95;58.03;;;;;;;;;;5096582;28;20499;-81
2021/11/01 11:49:53;;;;;;;93.72;53.78;;;;;;;;;;5083974;28;20974;-82
2021/11/01 11:52:22;;;;;;;93.55;52.10;;;;;;;;;;5097960;28;20489;-81
2021/11/01 11:54:53;;;;;;;95.57;53.03;;;;;;;;;;5091127;28;20899;-81
2021/11/01 11:57:21;;;;;;;92.80;51.60;;;;;;;;;;5088772;28;20401;-81
2021/11/01 11:59:53;;;;;;;89.37;50.50;;;;;;;;;;5088255;28;20402;-81
2021/11/01 12:02:35;;;;;;;80.70;46.50;;;;;;;;;;5090267;28;20500;-80
2021/11/01 12:05:09;;;;;;;76.65;46.28;;;;;;;;;;5089111;28;20408;-81
2021/11/01 12:07:42;;;;;;;75.85;44.25;;;;;;;;;;5087527;28;20442;-80
2021/11/01 12:10:20;;;;;;;75.72;44.97;;;;;;;;;;5085562;28;20414;-80
2021/11/01 12:13:04;;;;;;;73.57;43.28;;;;;;;;;;5091658;28;20402;-81
2021/11/01 12:18:26;;;;;;;65.77;40.97;;;;;;;;;;5097628;27;20391;-80
2021/11/01 12:20:58;;;;;;;70.65;42.28;;;;;;;;;;5094374;28;20536;-80
2021/11/01 12:23:35;;;;;;;69.95;41.65;;;;;;;;;;5092212;28;20872;-80
2021/11/01 12:26:08;;;;;;;67.57;42.03;;;;;;;;;;5091908;28;20421;-80
2021/11/01 12:28:35;;;;;;;64.30;39.53;;;;;;;;;;5095713;28;20403;-81
2021/11/01 12:31:03;;;;;;;66.20;40.35;;;;;;;;;;5107978;27;20410;-81
2021/11/01 12:33:32;;;;;;;64.93;40.80;;;;;;;;;;5105719;27;20921;-81
2021/11/01 12:36:02;;;;;;;66.88;40.92;;;;;;;;;;5096566;28;20455;-82
2021/11/01 12:38:39;;;;;;;65.38;40.15;;;;;;;;;;5094348;28;20481;-81
2021/11/01 12:41:21;;;;;;;68.30;41.42;;;;;;;;;;5096156;28;20453;-81
2021/11/01 12:57:49;;;;;;;58.95;38.20;;;;;;;;;;5092377;28;20827;-79
2021/11/01 13:00:16;;;;;;;64.43;38.85;;;;;;;;;;5093798;28;20393;-80
2021/11/01 13:02:46;;;;;;;60.67;38.17;;;;;;;;;;5097061;27;20427;-79
2021/11/01 13:05:17;;;;;;;59.53;37.20;;;;;;;;;;5095368;28;20416;-82
2021/11/01 13:07:53;;;;;;;52.78;35.45;;;;;;;;;;5095510;28;20947;-81
2021/11/01 13:10:26;;;;;;;53.28;35.70;;;;;;;;;;5098065;28;20415;-81
2021/11/01 13:18:50;;;;;;;47.55;32.58;;;;;;;;;;5097361;28;20449;-81
2021/11/01 13:21:19;;;;;;;49.13;33.00;;;;;;;;;;5100591;28;20398;-80
2021/11/01 13:23:57;;;;;;;50.22;32.33;;;;;;;;;;5095263;28;20402;-82
2021/11/01 13:26:34;;;;;;;48.35;31.85;;;;;;;;;;5087627;28;20450;-82
2021/11/01 13:29:23;;;;;;;49.95;32.50;;;;;;;;;;5075532;28;20431;-83
2021/11/01 13:37:25;;;;;;;47.03;30.80;;;;;;;;;;5097913;28;20398;-82
2021/11/01 13:40:04;;;;;;;49.08;31.65;;;;;;;;;;5096929;28;20469;-81
2021/11/01 13:42:31;;;;;;;48.15;31.15;;;;;;;;;;5097931;28;20754;-81
2021/11/01 13:45:09;;;;;;;48.93;31.37;;;;;;;;;;5099232;27;20496;-82
2021/11/01 13:47:47;;;;;;;48.33;31.15;;;;;;;;;;5100641;27;20819;-81
2021/11/01 13:50:18;;;;;;;44.92;30.70;;;;;;;;;;5098804;28;20406;-81
2021/11/01 13:52:56;;;;;;;46.63;31.10;;;;;;;;;;5099421;28;20765;-81
2021/11/01 13:55:33;;;;;;;43.13;29.05;;;;;;;;;;5104605;28;20749;-80
2021/11/01 13:58:05;;;;;;;43.00;27.73;;;;;;;;;;5104805;28;20880;-79
2021/11/01 14:00:43;;;;;;;40.83;27.08;;;;;;;;;;5102978;28;20398;-79
2021/11/01 14:11:49;;;;;;;37.45;25.02;;;;;;;;;;5068231;28;20435;-78
2021/11/01 14:14:30;;;;;;;37.53;24.45;;;;;;;;;;5090792;27;20837;-80
2021/11/01 14:17:03;;;;;;;36.63;24.67;;;;;;;;;;5097992;27;20491;-80
2021/11/01 14:20:03;;;;;;;35.22;25.20;;;;;;;;;;5089197;28;20400;-81
2021/11/01 14:28:30;;;;;;;37.10;25.23;;;;;;;;;;5028449;28;20469;-79
2021/11/01 14:31:20;;;;;;;34.15;24.38;;;;;;;;;;5074641;28;20401;-80
2021/11/01 14:34:14;;;;;;;33.90;23.60;;;;;;;;;;5092119;28;20470;-80
2021/11/01 14:37:07;;;;;;;35.63;23.35;;;;;;;;;;5091943;28;20404;-80
2021/11/01 15:15:39;;;;;;;22.15;16.38;;;;;;;;;;5100041;27;20380;-79
2021/11/01 15:21:02;;;;;;;20.60;15.90;;;;;;;;;;5093809;28;20547;-81
2021/11/01 15:37:59;;;;;;;19.42;14.70;;;;;;;;;;5078474;28;20411;-80
2021/11/01 16:16:49;;;;;;;22.83;16.80;;;;;;;;;;5090458;28;20414;-80
2021/11/01 16:19:16;;;;;;;23.27;17.13;;;;;;;;;;5095371;28;20439;-79
2021/11/01 16:21:45;;;;;;;22.92;16.85;;;;;;;;;;5091507;28;20404;-79
2021/11/01 16:24:12;;;;;;;24.55;17.20;;;;;;;;;;5094102;28;20819;-81
2021/11/01 16:26:40;;;;;;;23.33;17.30;;;;;;;;;;5081436;28;20404;-78
2021/11/01 16:29:10;;;;;;;23.80;17.25;;;;;;;;;;5083176;28;20814;-81
2021/11/01 16:31:45;;;;;;;22.92;16.77;;;;;;;;;;5078390;28;20461;-79
2021/11/01 16:34:16;;;;;;;21.38;15.65;;;;;;;;;;5079894;28;20499;-81
2021/11/01 16:39:45;;;;;;;19.02;14.77;;;;;;;;;;5081275;28;20411;-80
2021/11/01 16:42:12;;;;;;;17.63;13.15;;;;;;;;;;5079867;28;20507;-79
2021/11/01 16:44:41;;;;;;;15.50;12.43;;;;;;;;;;5081796;28;20405;-80
2021/11/01 16:47:08;;;;;;;16.17;12.57;;;;;;;;;;5078817;28;20408;-80
2021/11/01 16:49:36;;;;;;;14.95;12.18;;;;;;;;;;5081342;28;20397;-81
2021/11/01 16:52:12;;;;;;;18.23;13.35;;;;;;;;;;5082333;28;20789;-80
2021/11/01 16:54:41;;;;;;;14.77;11.30;;;;;;;;;;5082385;28;20500;-79
2021/11/01 16:57:13;;;;;;;12.83;9.90;;;;;;;;;;5081123;28;20819;-79
2021/11/01 16:59:47;;;;;;;11.95;9.00;;;;;;;;;;5081549;28;20401;-79
2021/11/01 17:02:32;;;;;;;11.07;9.02;;;;;;;;;;5079525;28;21014;-80
2021/11/01 17:05:04;;;;;;;10.82;7.60;;;;;;;;;;5080834;28;20420;-80
2021/11/01 17:07:46;;;;;;;10.07;7.88;;;;;;;;;;5081832;28;20772;-81
2021/11/01 17:26:52;;;;;;;6.18;4.55;;;;;;;;;;5072759;28;20479;-77
2021/11/01 17:29:36;;;;;;;4.70;4.20;;;;;;;;;;5080858;28;20404;-80
2021/11/01 17:35:05;;;;;;;4.97;4.32;;;;;;;;;;5081749;28;20411;-77
2021/11/01 17:37:39;;;;;;;6.88;5.85;;;;;;;;;;5079950;28;20408;-78
2021/11/01 18:39:12;;;;;;;4.57;2.78;;;;;;;;;;5076369;28;20406;-81
2021/11/01 18:41:41;;;;;;;4.93;3.58;;;;;;;;;;5080481;28;20757;-81
2021/11/01 18:52:33;;;;;;;5.07;4.30;;;;;;;;;;5084531;28;20388;-80
2021/11/01 18:55:04;;;;;;;5.70;3.78;;;;;;;;;;5084809;28;20448;-80
2021/11/01 18:57:33;;;;;;;4.03;3.40;;;;;;;;;;5084598;28;20491;-80
2021/11/01 19:00:03;;;;;;;4.85;3.60;;;;;;;;;;5085685;28;20416;-81
2021/11/01 19:05:25;;;;;;;3.88;3.00;;;;;;;;;;5086246;28;20399;-80
2021/11/01 19:08:04;;;;;;;3.65;2.85;;;;;;;;;;5071854;28;20414;-80
2021/11/01 20:06:11;;;;;;;2.70;1.33;;;;;;;;;;5080980;28;20521;-80
2021/11/01 20:14:36;;;;;;;1.30;1.20;;;;;;;;;;5060034;28;20485;-81
2021/11/01 21:26:44;;;;;;;0.57;0.40;;;;;;;;;;5071835;28;20478;-82
2021/11/01 21:29:11;;;;;;;0.80;0.32;;;;;;;;;;5083671;28;20415;-82
2021/11/01 21:31:40;;;;;;;0.32;0.30;;;;;;;;;;5083173;28;20426;-82
2021/11/01 21:34:12;;;;;;;0.73;0.30;;;;;;;;;;5083673;28;20434;-82
2021/11/01 21:36:39;;;;;;;0.90;0.60;;;;;;;;;;5083395;28;20404;-81
2021/11/01 21:39:06;;;;;;;3.03;2.73;;;;;;;;;;5083107;28;20504;-82
2021/11/01 21:41:33;;;;;;;2.97;2.45;;;;;;;;;;5084279;28;20404;-82
2021/11/01 21:44:00;;;;;;;4.35;3.65;;;;;;;;;;5083802;28;20423;-81
2021/11/01 21:46:27;;;;;;;2.92;2.33;;;;;;;;;;5082674;28;20404;-82
2021/11/01 21:48:55;;;;;;;3.58;2.60;;;;;;;;;;5083908;28;20409;-80
2021/11/01 21:51:22;;;;;;;5.75;2.90;;;;;;;;;;5084169;28;20400;-82
2021/11/01 21:53:55;;;;;;;2.20;1.40;;;;;;;;;;5084101;28;20404;-82
2021/11/01 21:56:22;;;;;;;1.57;0.73;;;;;;;;;;5082978;28;20420;-82
2021/11/01 21:59:07;;;;;;;0.70;0.60;;;;;;;;;;5083514;28;20428;-82
2021/11/01 22:10:21;;;;;;;5.30;3.40;;;;;;;;;;5083844;28;20423;-81
2021/11/01 22:18:22;;;;;;;3.38;2.60;;;;;;;;;;5092853;28;20391;-82
2021/11/01 22:20:54;;;;;;;3.25;2.92;;;;;;;;;;5084305;28;20537;-82
2021/11/01 22:23:31;;;;;;;2.20;1.63;;;;;;;;;;5083596;28;20400;-81
2021/11/01 22:26:03;;;;;;;2.20;1.70;;;;;;;;;;5082963;28;20510;-81
2021/11/01 22:39:34;;;;;;;1.80;1.70;;;;;;;;;;5083088;28;20396;-82
2021/11/01 22:45:14;;;;;;;2.20;2.00;;;;;;;;;;5072881;28;20457;-82
2021/11/01 22:56:14;;;;;;;3.15;2.10;;;;;;;;;;5084572;28;20418;-82
2021/11/01 22:58:42;;;;;;;3.35;2.28;;;;;;;;;;5083732;28;20434;-82
2021/11/01 23:01:17;;;;;;;2.40;2.08;;;;;;;;;;5085437;28;20403;-82
2021/11/01 23:03:50;;;;;;;2.80;2.40;;;;;;;;;;5082456;28;20412;-82
2021/11/01 23:31:29;;;;;;;6.30;5.70;;;;;;;;;;5085056;28;20427;-82
2021/11/01 23:33:56;;;;;;;6.50;5.90;;;;;;;;;;5084896;28;20939;-83
2021/11/01 23:36:23;;;;;;;7.13;6.43;;;;;;;;;;5087997;28;20428;-83
2021/11/01 23:38:51;;;;;;;7.78;6.97;;;;;;;;;;5089707;28;20426;-82
2021/11/01 23:41:20;;;;;;;8.32;7.53;;;;;;;;;;5087761;28;20482;-82
2021/11/01 23:43:47;;;;;;;9.45;8.55;;;;;;;;;;5089102;28;20407;-82
2021/11/01 23:46:15;;;;;;;9.68;8.68;;;;;;;;;;5088431;28;20488;-83
2021/11/01 23:48:41;;;;;;;11.05;9.95;;;;;;;;;;5088932;28;20965;-82
2021/11/01 23:51:10;;;;;;;12.27;10.85;;;;;;;;;;5089187;28;20396;-82
2021/11/01 23:53:42;;;;;;;13.50;12.10;;;;;;;;;;5088738;28;20495;-82
2021/11/01 23:56:09;;;;;;;13.25;11.75;;;;;;;;;;5089160;28;20412;-82
2021/11/01 23:58:38;;;;;;;13.77;12.38;;;;;;;;;;5088460;28;20403;-83
